createdAt,value
2018-10-21T00:00:09.870Z,17.87
2018-10-21T00:02:37.998Z,20.55
2018-10-21T00:05:06.991Z,19.25
2018-10-21T00:07:35.088Z,19.73
2018-10-21T00:10:03.393Z,20.43
2018-10-21T00:12:31.491Z,20.60
2018-10-21T00:14:59.602Z,19.95
2018-10-21T00:17:28.034Z,20.10
2018-10-21T00:19:56.192Z,20.17
2018-10-21T00:22:24.361Z,17.83
2018-10-21T00:24:52.545Z,20.25
2018-10-21T00:27:20.667Z,20.12
2018-10-21T00:29:48.786Z,20.52
2018-10-21T00:32:16.920Z,20.05
2018-10-21T00:34:45.001Z,24.17
2018-10-21T00:37:13.109Z,19.37
2018-10-21T00:39:41.202Z,22.30
2018-10-21T00:42:09.311Z,16.80
2018-10-21T00:44:37.404Z,18.12
2018-10-21T00:47:05.513Z,17.53
2018-10-21T00:49:33.607Z,20.25
2018-10-21T00:52:01.688Z,20.27
2018-10-21T00:54:29.780Z,17.53
2018-10-21T00:56:57.913Z,19.75
2018-10-21T00:59:26.007Z,17.48
2018-10-21T01:01:54.095Z,18.65
2018-10-21T01:04:22.199Z,17.95
2018-10-21T01:06:50.297Z,18.67
2018-10-21T01:09:18.715Z,20.45
2018-10-21T01:11:46.653Z,18.95
2018-10-21T01:14:14.808Z,20.97
2018-10-21T01:16:42.970Z,20.10
2018-10-21T01:19:11.051Z,22.90
2018-10-21T01:21:39.179Z,18.50
2018-10-21T01:24:07.047Z,19.07
2018-10-21T01:26:35.256Z,21.77
2018-10-21T01:29:03.363Z,20.60
2018-10-21T01:31:31.509Z,19.50
2018-10-21T01:33:59.630Z,18.77
2018-10-21T01:36:27.897Z,22.90
2018-10-21T01:38:55.833Z,20.00
2018-10-21T01:41:23.935Z,22.23
2018-10-21T01:43:52.008Z,22.13
2018-10-21T01:46:20.148Z,20.17
2018-10-21T01:48:48.316Z,19.87
2018-10-21T01:51:23.395Z,20.20
2018-10-21T01:53:51.514Z,21.60
2018-10-21T01:56:19.597Z,21.12
2018-10-21T01:58:47.684Z,20.93
2018-10-21T02:01:15.780Z,22.80
2018-10-21T02:03:43.884Z,22.00
2018-10-21T02:06:11.976Z,21.85
2018-10-21T02:08:40.061Z,20.70
2018-10-21T02:11:08.228Z,24.12
2018-10-21T02:13:36.411Z,21.85
2018-10-21T02:16:04.493Z,22.13
2018-10-21T02:18:32.609Z,23.85
2018-10-21T02:21:00.686Z,21.33
2018-10-21T02:23:28.772Z,23.03
2018-10-21T02:25:56.904Z,23.70
2018-10-21T02:28:24.991Z,22.55
2018-10-21T02:30:53.083Z,25.20
2018-10-21T02:33:21.309Z,23.38
2018-10-21T02:35:49.304Z,24.77
2018-10-21T02:38:17.536Z,25.82
2018-10-21T02:41:16.661Z,25.23
2018-10-21T02:43:44.755Z,26.23
2018-10-21T02:46:13.180Z,26.33
2018-10-21T02:48:42.056Z,25.57
2018-10-21T02:51:10.606Z,26.57
2018-10-21T02:53:38.617Z,26.27
2018-10-21T02:56:07.292Z,28.53
2018-10-21T02:58:35.369Z,24.63
2018-10-21T03:01:04.073Z,24.87
2018-10-21T03:03:32.166Z,28.17
2018-10-21T03:06:00.245Z,26.87
2018-10-21T03:08:28.360Z,28.00
2018-10-21T03:10:56.448Z,26.82
2018-10-21T03:13:24.599Z,25.40
2018-10-21T03:15:53.029Z,25.95
2018-10-21T03:18:21.196Z,25.85
2018-10-21T03:20:49.468Z,26.30
2018-10-21T03:23:17.527Z,29.90
2018-10-21T03:25:46.131Z,26.30
2018-10-21T03:28:14.476Z,24.47
2018-10-21T03:30:42.552Z,27.43
2018-10-21T03:33:10.744Z,28.53
2018-10-21T03:35:38.723Z,27.67
2018-10-21T03:38:06.839Z,25.95
2018-10-21T03:40:34.988Z,32.30
2018-10-21T03:43:03.052Z,27.23
2018-10-21T03:45:31.176Z,30.20
2018-10-21T03:47:59.256Z,29.50
2018-10-21T03:50:27.953Z,25.52
2018-10-21T03:52:56.229Z,28.07
2018-10-21T03:55:24.355Z,28.55
2018-10-21T03:57:52.683Z,27.93
2018-10-21T04:00:20.896Z,29.05
2018-10-21T04:02:49.008Z,27.65
2018-10-21T04:05:17.112Z,30.27
2018-10-21T04:07:45.184Z,27.93
2018-10-21T04:10:13.980Z,27.90
2018-10-21T04:12:42.047Z,26.97
2018-10-21T04:15:10.329Z,28.17
2018-10-21T04:17:38.408Z,27.13
2018-10-21T04:20:06.953Z,26.85
2018-10-21T04:22:39.232Z,28.70
2018-10-21T04:25:07.321Z,27.10
2018-10-21T04:27:35.401Z,26.67
2018-10-21T04:30:03.590Z,24.20
2018-10-21T04:32:33.303Z,27.37
2018-10-21T04:35:01.421Z,28.25
2018-10-21T04:39:44.676Z,24.92
2018-10-21T04:42:12.809Z,26.13
2018-10-21T04:44:40.940Z,27.13
2018-10-21T04:47:09.147Z,29.23
2018-10-21T04:49:37.172Z,29.40
2018-10-21T04:52:05.278Z,28.37
2018-10-21T04:54:35.975Z,25.83
2018-10-21T04:57:06.210Z,27.80
2018-10-21T04:59:34.664Z,26.15
2018-10-21T05:02:02.772Z,27.77
2018-10-21T05:04:31.047Z,27.10
2018-10-21T05:06:59.133Z,27.95
2018-10-21T05:09:27.215Z,27.77
2018-10-21T05:11:55.329Z,27.50
2018-10-21T05:14:23.813Z,27.22
2018-10-21T05:16:51.960Z,27.30
2018-10-21T05:19:20.185Z,28.57
2018-10-21T05:21:48.652Z,27.57
2018-10-21T05:24:16.744Z,28.20
2018-10-21T05:26:44.827Z,26.93
2018-10-21T05:29:13.767Z,31.40
2018-10-21T05:31:41.897Z,36.43
2018-10-21T05:34:10.188Z,26.97
2018-10-21T05:36:38.371Z,28.47
2018-10-21T05:39:07.960Z,31.90
2018-10-21T05:41:36.272Z,28.20
2018-10-21T05:44:04.644Z,29.73
2018-10-21T05:46:41.597Z,31.02
2018-10-21T05:49:09.740Z,28.77
2018-10-21T05:51:38.524Z,27.20
2018-10-21T05:54:07.140Z,29.17
2018-10-21T05:56:35.396Z,28.40
2018-10-21T05:59:03.548Z,29.67
2018-10-21T06:01:31.640Z,30.10
2018-10-21T06:03:59.918Z,30.37
2018-10-21T06:06:27.996Z,29.67
2018-10-21T06:08:56.079Z,30.87
2018-10-21T06:11:24.189Z,29.90
2018-10-21T06:13:52.444Z,28.40
2018-10-21T06:16:20.815Z,25.83
2018-10-21T06:18:48.692Z,27.65
2018-10-21T06:21:16.756Z,30.23
2018-10-21T06:23:45.030Z,28.63
2018-10-21T06:26:13.025Z,30.37
2018-10-21T06:28:41.605Z,30.07
2018-10-21T06:31:09.685Z,26.13
2018-10-21T06:33:37.822Z,29.03
2018-10-21T06:36:05.890Z,28.13
2018-10-21T06:38:33.977Z,28.70
2018-10-21T06:41:02.073Z,25.82
2018-10-21T06:43:30.488Z,29.23
2018-10-21T06:45:58.570Z,30.75
2018-10-21T06:48:26.729Z,26.87
2018-10-21T06:50:54.806Z,27.90
2018-10-21T06:53:22.880Z,27.10
2018-10-21T06:55:50.954Z,26.40
2018-10-21T06:58:19.211Z,29.43
2018-10-21T07:00:47.284Z,29.53
2018-10-21T07:03:15.423Z,28.47
2018-10-21T07:06:19.811Z,27.75
2018-10-21T07:08:48.709Z,29.23
2018-10-21T07:11:16.810Z,27.93
2018-10-21T07:13:45.156Z,30.03
2018-10-21T07:16:13.687Z,33.73
2018-10-21T07:18:42.533Z,26.57
2018-10-21T07:21:10.800Z,25.30
2018-10-21T07:23:39.417Z,28.98
2018-10-21T07:26:07.590Z,26.42
2018-10-21T07:28:35.716Z,25.37
2018-10-21T07:31:04.016Z,23.12
2018-10-21T07:33:32.120Z,22.85
2018-10-21T07:36:00.382Z,24.52
2018-10-21T07:38:28.497Z,26.93
2018-10-21T07:40:57.249Z,24.02
2018-10-21T07:43:25.332Z,27.75
2018-10-21T07:45:53.454Z,25.88
2018-10-21T07:48:21.599Z,24.52
2018-10-21T07:50:49.759Z,24.72
2018-10-21T07:53:17.840Z,20.77
2018-10-21T07:55:45.976Z,20.05
2018-10-21T07:58:14.096Z,22.37
2018-10-21T08:00:42.194Z,19.98
2018-10-21T08:03:10.312Z,19.73
2018-10-21T08:05:44.099Z,23.62
2018-10-21T08:08:16.977Z,24.63
2018-10-21T08:10:45.108Z,20.95
2018-10-21T08:13:14.337Z,23.15
2018-10-21T08:15:43.022Z,22.48
2018-10-21T08:18:11.935Z,23.65
2018-10-21T08:20:41.012Z,21.80
2018-10-21T08:23:10.528Z,18.95
2018-10-21T08:25:38.903Z,20.88
2018-10-21T08:28:07.154Z,21.17
2018-10-21T08:30:35.252Z,18.95
2018-10-21T08:33:04.357Z,19.95
2018-10-21T08:35:32.434Z,21.90
2018-10-21T08:38:00.663Z,19.15
2018-10-21T08:40:29.087Z,21.27
2018-10-21T08:42:57.385Z,17.67
2018-10-21T08:45:25.851Z,19.42
2018-10-21T08:47:54.075Z,19.05
2018-10-21T08:50:22.209Z,18.35
2018-10-21T08:52:50.311Z,17.70
2018-10-21T08:55:18.414Z,19.20
2018-10-21T08:57:46.505Z,19.82
2018-10-21T09:00:16.312Z,21.23
2018-10-21T09:02:45.003Z,20.97
2018-10-21T09:05:14.423Z,21.30
2018-10-21T09:07:43.216Z,19.90
2018-10-21T09:10:12.587Z,21.33
2018-10-21T09:12:40.876Z,21.15
2018-10-21T09:15:10.135Z,22.80
2018-10-21T09:17:38.668Z,22.77
2018-10-21T09:20:07.791Z,23.00
2018-10-21T09:22:35.904Z,27.85
2018-10-21T09:25:04.849Z,22.98
2018-10-21T09:27:33.093Z,21.95
2018-10-21T09:30:01.584Z,22.95
2018-10-21T09:32:29.805Z,23.38
2018-10-21T09:34:57.984Z,22.32
2018-10-21T09:37:26.078Z,23.25
2018-10-21T09:39:54.199Z,23.55
2018-10-21T09:42:22.389Z,22.17
2018-10-21T09:44:51.076Z,20.90
2018-10-21T09:47:19.208Z,21.52
2018-10-21T09:49:47.316Z,22.77
2018-10-21T09:52:15.554Z,20.43
2018-10-21T09:54:43.601Z,19.62
2018-10-21T09:57:11.712Z,20.72
2018-10-21T09:59:39.904Z,18.92
2018-10-21T10:02:13.687Z,19.20
2018-10-21T10:04:41.956Z,19.35
2018-10-21T10:07:10.213Z,18.45
2018-10-21T10:09:38.343Z,18.35
2018-10-21T10:12:06.404Z,19.12
2018-10-21T10:14:34.584Z,18.35
2018-10-21T10:17:02.672Z,18.48
2018-10-21T10:19:30.778Z,19.12
2018-10-21T10:21:58.942Z,18.48
2018-10-21T10:24:27.034Z,19.12
2018-10-21T10:26:55.152Z,19.02
2018-10-21T10:29:23.332Z,19.57
2018-10-21T10:31:51.505Z,19.07
2018-10-21T10:34:19.781Z,19.35
2018-10-21T10:36:48.117Z,17.77
2018-10-21T10:39:16.336Z,17.90
2018-10-21T10:41:44.433Z,17.20
2018-10-21T10:44:12.579Z,17.23
2018-10-21T10:46:40.694Z,18.05
2018-10-21T10:49:08.945Z,18.17
2018-10-21T10:51:36.967Z,18.27
2018-10-21T10:54:05.441Z,17.82
2018-10-21T10:56:33.549Z,18.55
2018-10-21T10:59:01.684Z,18.77
2018-10-21T11:01:29.821Z,16.90
2018-10-21T11:03:57.968Z,17.85
2018-10-21T11:06:26.082Z,17.52
2018-10-21T11:08:54.825Z,17.42
2018-10-21T11:11:23.013Z,19.30
2018-10-21T11:13:51.203Z,19.15
2018-10-21T11:16:19.372Z,18.10
2018-10-21T11:18:47.514Z,19.37
2018-10-21T11:21:15.629Z,20.62
2018-10-21T11:23:44.376Z,17.32
2018-10-21T11:26:12.488Z,18.90
2018-10-21T11:28:40.596Z,18.75
2018-10-21T11:31:08.748Z,17.87
2018-10-21T11:33:37.291Z,17.80
2018-10-21T11:36:05.400Z,21.75
2018-10-21T11:38:33.565Z,17.45
2018-10-21T11:41:01.684Z,16.48
2018-10-21T11:43:29.820Z,17.42
2018-10-21T11:45:58.011Z,17.07
2018-10-21T11:48:26.123Z,16.48
2018-10-21T11:50:55.243Z,16.42
2018-10-21T11:53:23.935Z,16.80
2018-10-21T11:55:52.096Z,18.32
2018-10-21T11:58:20.241Z,14.78
2018-10-21T12:00:48.381Z,13.55
2018-10-21T12:03:16.481Z,13.90
2018-10-21T12:05:44.727Z,11.88
2018-10-21T12:08:13.221Z,11.38
2018-10-21T12:10:41.296Z,11.78
2018-10-21T12:13:09.461Z,12.43
2018-10-21T12:15:37.596Z,12.55
2018-10-21T12:18:05.942Z,10.93
2018-10-21T12:20:34.069Z,13.70
2018-10-21T12:23:02.319Z,11.88
2018-10-21T12:25:30.431Z,11.18
2018-10-21T12:27:58.556Z,11.03
2018-10-21T12:30:26.646Z,10.00
2018-10-21T12:32:54.756Z,12.55
2018-10-21T12:35:22.847Z,10.65
2018-10-21T12:37:50.941Z,10.03
2018-10-21T12:40:19.113Z,9.93
2018-10-21T12:42:47.153Z,11.28
2018-10-21T12:45:15.283Z,10.40
2018-10-21T12:47:43.392Z,9.95
2018-10-21T12:50:11.625Z,8.55
2018-10-21T12:52:39.739Z,8.05
2018-10-21T12:55:08.517Z,8.90
2018-10-21T12:57:36.684Z,8.13
2018-10-21T13:00:04.909Z,8.75
2018-10-21T13:02:33.113Z,7.42
2018-10-21T13:05:01.299Z,9.00
2018-10-21T13:07:29.534Z,10.00
2018-10-21T13:09:57.759Z,8.25
2018-10-21T13:12:25.908Z,9.93
2018-10-21T13:14:54.024Z,6.95
2018-10-21T13:17:22.164Z,8.60
2018-10-21T13:19:50.478Z,8.88
2018-10-21T13:22:18.593Z,7.45
2018-10-21T13:24:46.732Z,7.28
2018-10-21T13:27:15.037Z,8.73
2018-10-21T13:29:43.143Z,9.28
2018-10-21T13:32:11.251Z,7.60
2018-10-21T13:34:39.554Z,8.10
2018-10-21T13:37:07.655Z,7.10
2018-10-21T13:39:35.828Z,7.35
2018-10-21T13:42:04.069Z,8.08
2018-10-21T13:44:32.165Z,7.50
2018-10-21T13:47:00.301Z,10.15
2018-10-21T13:49:28.471Z,8.93
2018-10-21T13:51:56.751Z,6.25
2018-10-21T13:54:24.696Z,7.40
2018-10-21T13:56:53.532Z,7.85
2018-10-21T13:59:21.644Z,7.33
2018-10-21T14:01:49.731Z,9.15
2018-10-21T14:04:17.877Z,7.00
2018-10-21T14:06:46.089Z,8.08
2018-10-21T14:09:14.415Z,7.60
2018-10-21T14:11:42.508Z,7.90
2018-10-21T14:14:11.568Z,6.25
2018-10-21T14:16:39.905Z,6.97
2018-10-21T14:19:08.776Z,6.30
2018-10-21T14:21:36.910Z,6.40
2018-10-21T14:24:05.183Z,7.90
2018-10-21T14:26:33.447Z,6.30
2018-10-21T14:29:01.732Z,6.97
2018-10-21T14:31:29.835Z,7.40
2018-10-21T14:33:58.039Z,6.78
2018-10-21T14:36:26.276Z,7.10
2018-10-21T14:38:54.403Z,7.12
2018-10-21T14:41:22.560Z,10.45
2018-10-21T14:43:52.136Z,8.90
2018-10-21T14:46:20.270Z,8.68
2018-10-21T14:48:48.381Z,9.05
2018-10-21T14:51:16.569Z,9.73
2018-10-21T14:53:44.755Z,11.05
2018-10-21T14:56:12.924Z,8.80
2018-10-21T14:58:40.990Z,11.50
2018-10-21T15:01:09.124Z,10.78
2018-10-21T15:03:37.289Z,8.80
2018-10-21T15:06:05.415Z,9.95
2018-10-21T15:08:33.564Z,8.70
2018-10-21T15:11:01.719Z,7.03
2018-10-21T15:13:29.840Z,9.38
2018-10-21T15:15:57.958Z,7.62
2018-10-21T15:18:26.165Z,9.38
2018-10-21T15:20:54.245Z,9.83
2018-10-21T15:23:22.391Z,10.43
2018-10-21T15:25:50.522Z,8.23
2018-10-21T15:28:18.665Z,7.22
2018-10-21T15:30:46.946Z,8.93
2018-10-21T15:33:15.608Z,9.58
2018-10-21T15:35:43.816Z,10.08
2018-10-21T15:38:12.220Z,7.62
2018-10-21T15:40:40.292Z,6.60
2018-10-21T15:43:08.444Z,7.85
2018-10-21T15:45:36.744Z,7.62
2018-10-21T15:48:05.025Z,5.97
2018-10-21T15:50:33.213Z,6.90
2018-10-21T15:53:01.240Z,7.75
2018-10-21T15:55:30.049Z,6.30
2018-10-21T15:57:58.161Z,6.15
2018-10-21T16:00:26.315Z,6.67
2018-10-21T16:02:54.429Z,8.33
2018-10-21T16:05:22.561Z,9.00
2018-10-21T16:07:50.724Z,6.47
2018-10-21T16:10:18.939Z,9.33
2018-10-21T16:12:47.089Z,9.13
2018-10-21T16:15:16.215Z,8.25
2018-10-21T16:17:45.125Z,7.45
2018-10-21T16:20:13.336Z,7.67
2018-10-21T16:22:42.294Z,7.17
2018-10-21T16:25:12.834Z,10.38
2018-10-21T16:27:41.214Z,9.10
2018-10-21T16:30:11.109Z,9.90
2018-10-21T16:32:40.156Z,10.23
2018-10-21T16:35:08.893Z,11.35
2018-10-21T16:37:37.351Z,9.83
2018-10-21T16:40:06.395Z,8.50
2018-10-21T16:42:34.483Z,8.40
2018-10-21T16:45:02.848Z,9.70
2018-10-21T16:47:30.897Z,10.38
2018-10-21T16:49:59.121Z,9.50
2018-10-21T16:52:27.275Z,8.73
2018-10-21T16:54:55.474Z,8.90
2018-10-21T16:57:23.704Z,10.88
2018-10-21T16:59:51.948Z,11.80
2018-10-21T17:02:20.527Z,9.08
2018-10-21T17:04:48.771Z,11.90
2018-10-21T17:07:16.944Z,9.60
2018-10-21T17:09:45.338Z,10.60
2018-10-21T17:12:13.135Z,9.60
2018-10-21T17:14:41.417Z,9.35
2018-10-21T17:17:09.564Z,8.33
2018-10-21T17:19:37.704Z,9.45
2018-10-21T17:22:05.930Z,11.60
2018-10-21T17:24:34.044Z,12.43
2018-10-21T17:27:02.157Z,9.75
2018-10-21T17:29:30.373Z,11.38
2018-10-21T17:31:59.068Z,11.22
2018-10-21T17:34:27.206Z,12.55
2018-10-21T17:36:55.289Z,10.03
2018-10-21T17:39:23.416Z,12.13
2018-10-21T17:41:51.604Z,10.23
2018-10-21T17:44:19.759Z,9.48
2018-10-21T17:46:47.917Z,9.33
2018-10-21T17:49:16.077Z,8.90
2018-10-21T17:51:44.116Z,12.35
2018-10-21T17:54:12.221Z,9.68
2018-10-21T17:56:45.672Z,10.88
2018-10-21T17:59:13.783Z,9.15
2018-10-21T18:01:41.912Z,9.75
2018-10-21T18:04:10.175Z,9.25
2018-10-21T18:06:38.310Z,14.23
2018-10-21T18:09:07.647Z,9.13
2018-10-21T18:11:35.818Z,9.65
2018-10-21T18:14:03.990Z,10.18
2018-10-21T18:16:32.159Z,12.07
2018-10-21T18:19:00.384Z,14.30
2018-10-21T18:21:28.500Z,14.00
2018-10-21T18:23:56.620Z,13.25
2018-10-21T18:26:24.797Z,11.60
2018-10-21T18:28:52.906Z,26.05
2018-10-21T18:31:21.032Z,32.08
2018-10-21T18:33:49.759Z,29.77
2018-10-21T18:36:17.888Z,30.02
2018-10-21T18:38:46.096Z,27.07
2018-10-21T18:41:14.781Z,21.87
2018-10-21T18:43:42.717Z,19.50
2018-10-21T18:46:11.408Z,18.80
2018-10-21T18:48:39.636Z,19.00
2018-10-21T18:51:07.828Z,17.90
2018-10-21T18:53:35.924Z,18.45
2018-10-21T18:56:04.037Z,17.67
2018-10-21T18:58:32.378Z,19.82
2018-10-21T19:01:00.504Z,18.67
2018-10-21T19:03:28.583Z,19.50
2018-10-21T19:05:56.724Z,16.67
2018-10-21T19:08:24.856Z,16.97
2018-10-21T19:10:52.996Z,17.75
2018-10-21T19:13:21.098Z,18.20
2018-10-21T19:15:49.289Z,18.20
2018-10-21T19:18:17.440Z,16.77
2018-10-21T19:20:45.684Z,18.80
2018-10-21T19:23:13.816Z,15.83
2018-10-21T19:25:42.001Z,18.40
2018-10-21T19:28:10.275Z,22.13
2018-10-21T19:30:38.411Z,17.67
2018-10-21T19:33:06.662Z,17.60
2018-10-21T19:35:34.940Z,20.05
2018-10-21T19:38:03.077Z,16.30
2018-10-21T19:40:31.204Z,17.82
2018-10-21T19:42:59.443Z,18.00
2018-10-21T19:45:27.581Z,21.77
2018-10-21T19:47:56.488Z,20.33
2018-10-21T19:50:24.632Z,18.83
2018-10-21T19:52:52.807Z,18.05
2018-10-21T19:55:20.939Z,19.48
2018-10-21T19:57:49.072Z,18.33
2018-10-21T20:00:17.685Z,22.07
2018-10-21T20:02:46.079Z,17.33
2018-10-21T20:05:14.364Z,17.87
2018-10-21T20:07:42.553Z,15.72
2018-10-21T20:10:11.914Z,16.07
2018-10-21T20:12:39.992Z,17.48
2018-10-21T20:15:08.905Z,18.52
2018-10-21T20:17:37.172Z,16.75
2018-10-21T20:20:06.565Z,16.37
2018-10-21T20:22:34.855Z,15.75
2018-10-21T20:25:03.036Z,13.15
2018-10-21T20:27:31.247Z,16.37
2018-10-21T20:29:59.928Z,14.83
2018-10-21T20:32:28.406Z,14.57
2018-10-21T20:34:56.498Z,17.73
2018-10-21T20:37:24.827Z,14.40
2018-10-21T20:39:53.037Z,16.35
2018-10-21T20:42:21.290Z,14.77
2018-10-21T20:44:49.421Z,13.30
2018-10-21T20:47:17.568Z,14.53
2018-10-21T20:49:45.659Z,13.25
2018-10-21T20:52:13.862Z,13.28
2018-10-21T20:54:47.083Z,13.83
2018-10-21T20:57:15.428Z,16.40
2018-10-21T20:59:44.870Z,13.50
2018-10-21T21:02:14.452Z,14.33
2018-10-21T21:04:42.599Z,13.00
2018-10-21T21:07:11.134Z,13.37
2018-10-21T21:09:40.012Z,12.97
2018-10-21T21:12:08.236Z,14.50
2018-10-21T21:14:36.428Z,14.57
2018-10-21T21:17:05.057Z,15.13
2018-10-21T21:19:33.519Z,15.27
2018-10-21T21:22:01.832Z,14.67
2018-10-21T21:24:30.009Z,15.03
2018-10-21T21:26:58.188Z,14.73
2018-10-21T21:29:26.348Z,12.90
2018-10-21T21:31:54.438Z,12.67
2018-10-21T21:34:22.569Z,13.87
2018-10-21T21:36:50.822Z,13.37
2018-10-21T21:39:18.926Z,12.20
2018-10-21T21:41:47.312Z,13.87
2018-10-21T21:44:15.866Z,12.33
2018-10-21T21:46:44.245Z,14.63
2018-10-21T21:49:13.472Z,13.67
2018-10-21T21:51:41.560Z,14.07
2018-10-21T21:54:11.264Z,14.07
2018-10-21T21:56:39.700Z,12.27
2018-10-21T21:59:08.404Z,12.30
2018-10-21T22:01:36.797Z,15.77
2018-10-21T22:04:05.795Z,12.83
2018-10-21T22:06:33.873Z,14.00
2018-10-21T22:09:02.074Z,13.37
2018-10-21T22:11:30.725Z,13.20
2018-10-21T22:13:58.855Z,13.97
2018-10-21T22:16:26.959Z,12.43
2018-10-21T22:18:55.085Z,13.17
2018-10-21T22:21:23.193Z,11.40
2018-10-21T22:23:51.310Z,13.57
2018-10-21T22:26:19.418Z,12.90
2018-10-21T22:28:47.501Z,15.67
2018-10-21T22:31:15.606Z,12.23
2018-10-21T22:33:43.676Z,12.33
2018-10-21T22:36:11.868Z,13.00
2018-10-21T22:38:39.896Z,12.63
2018-10-21T22:41:08.032Z,13.23
2018-10-21T22:43:36.465Z,16.00
2018-10-21T22:46:05.169Z,15.17
2018-10-21T22:48:33.226Z,13.37
2018-10-21T22:51:01.359Z,14.70
2018-10-21T22:53:29.584Z,13.20
2018-10-21T22:55:57.663Z,14.87
2018-10-21T22:58:25.764Z,15.43
2018-10-21T23:00:53.927Z,13.57
2018-10-21T23:03:22.028Z,14.73
2018-10-21T23:05:50.106Z,14.57
2018-10-21T23:08:18.293Z,14.60
2018-10-21T23:10:46.367Z,15.17
2018-10-21T23:13:14.459Z,14.93
2018-10-21T23:15:42.555Z,14.17
2018-10-21T23:18:10.706Z,14.20
2018-10-21T23:20:38.789Z,13.13
2018-10-21T23:23:06.863Z,13.17
2018-10-21T23:25:35.052Z,15.60
2018-10-21T23:28:03.307Z,15.60
2018-10-21T23:30:31.366Z,16.40
2018-10-21T23:32:59.449Z,15.23
2018-10-21T23:35:27.540Z,14.27
2018-10-21T23:37:55.703Z,14.97
2018-10-21T23:40:23.894Z,13.80
2018-10-21T23:42:52.088Z,14.17
2018-10-21T23:45:20.177Z,15.43
2018-10-21T23:47:48.347Z,15.50
2018-10-21T23:50:16.436Z,14.37
2018-10-21T23:52:44.520Z,14.20
2018-10-21T23:55:12.608Z,13.87
2018-10-21T23:57:40.689Z,13.93
